createdAt,value
2023-04-24T00:01:10.077Z,2.23
2023-04-24T00:03:38.487Z,2.57
2023-04-24T00:06:06.343Z,1.80
2023-04-24T00:08:33.394Z,2.00
2023-04-24T00:11:00.245Z,1.67
2023-04-24T00:13:29.337Z,1.43
2023-04-24T00:15:56.998Z,1.37
2023-04-24T00:18:23.848Z,1.50
2023-04-24T00:20:50.683Z,1.33
2023-04-24T00:23:17.410Z,1.33
2023-04-24T00:25:44.361Z,1.00
2023-04-24T00:28:11.105Z,1.10
2023-04-24T00:30:37.892Z,1.40
2023-04-24T00:33:04.855Z,1.23
2023-04-24T00:35:31.727Z,1.20
2023-04-24T00:37:58.458Z,1.27
2023-04-24T00:40:25.306Z,1.20
2023-04-24T00:42:52.106Z,1.43
2023-04-24T00:45:19.213Z,1.40
2023-04-24T00:47:47.747Z,1.90
2023-04-24T00:50:16.481Z,1.67
2023-04-24T00:52:43.304Z,1.80
2023-04-24T00:55:10.681Z,1.90
2023-04-24T00:57:38.628Z,1.70
2023-04-24T01:00:06.873Z,1.60
2023-04-24T01:02:35.611Z,1.67
2023-04-24T01:05:03.001Z,1.90
2023-04-24T01:07:30.138Z,1.73
2023-04-24T01:09:57.301Z,2.00
2023-04-24T01:12:24.292Z,1.90
2023-04-24T01:14:51.052Z,1.90
2023-04-24T01:17:17.839Z,2.00
2023-04-24T01:19:47.994Z,1.80
2023-04-24T01:22:16.021Z,1.83
2023-04-24T01:24:43.928Z,1.97
2023-04-24T01:27:11.582Z,2.10
2023-04-24T01:29:38.388Z,2.17
2023-04-24T01:32:06.193Z,1.80
2023-04-24T01:34:33.407Z,1.60
2023-04-24T01:37:00.510Z,1.93
2023-04-24T01:39:29.436Z,2.00
2023-04-24T01:41:57.021Z,1.80
2023-04-24T01:44:24.763Z,1.63
2023-04-24T01:46:51.777Z,1.37
2023-04-24T01:49:18.839Z,1.50
2023-04-24T01:51:46.001Z,1.30
2023-04-24T01:54:13.536Z,1.27
2023-04-24T01:56:44.412Z,1.43
2023-04-24T01:59:14.333Z,1.80
2023-04-24T02:01:41.149Z,1.60
2023-04-24T02:04:09.277Z,1.83
2023-04-24T02:06:36.402Z,2.10
2023-04-24T02:09:04.362Z,1.70
2023-04-24T02:11:31.272Z,1.63
2023-04-24T02:13:58.046Z,1.50
2023-04-24T02:16:24.868Z,1.47
2023-04-24T02:18:51.696Z,1.40
2023-04-24T02:21:18.525Z,1.30
2023-04-24T02:23:45.389Z,1.43
2023-04-24T02:26:12.366Z,1.37
2023-04-24T02:28:39.149Z,1.50
2023-04-24T02:31:07.213Z,1.43
2023-04-24T02:33:34.131Z,1.43
2023-04-24T02:36:01.292Z,1.50
2023-04-24T02:38:28.061Z,1.30
2023-04-24T02:40:54.941Z,1.20
2023-04-24T02:43:21.819Z,1.60
2023-04-24T02:45:48.627Z,1.40
2023-04-24T02:48:15.781Z,1.20
2023-04-24T02:50:42.551Z,2.23
2023-04-24T02:53:09.510Z,1.40
2023-04-24T02:55:36.744Z,1.50
2023-04-24T02:58:03.618Z,1.57
2023-04-24T03:00:30.945Z,1.73
2023-04-24T03:02:57.970Z,1.60
2023-04-24T03:05:25.051Z,1.63
2023-04-24T03:07:53.649Z,1.33
2023-04-24T03:10:20.787Z,1.60
2023-04-24T03:12:47.572Z,1.40
2023-04-24T03:15:14.615Z,1.70
2023-04-24T03:17:41.512Z,1.50
2023-04-24T03:20:12.067Z,1.57
2023-04-24T03:22:38.890Z,1.60
2023-04-24T03:25:06.264Z,1.43
2023-04-24T03:27:33.101Z,1.57
2023-04-24T03:29:59.829Z,1.30
2023-04-24T03:32:26.596Z,1.50
2023-04-24T03:34:54.307Z,1.63
2023-04-24T03:37:21.134Z,1.50
2023-04-24T03:39:47.985Z,1.53
2023-04-24T03:42:14.762Z,1.30
2023-04-24T03:44:41.602Z,1.70
2023-04-24T03:47:08.554Z,1.13
2023-04-24T03:49:35.463Z,1.23
2023-04-24T03:52:02.485Z,1.40
2023-04-24T03:54:29.225Z,1.43
2023-04-24T03:56:56.171Z,1.30
2023-04-24T03:59:22.965Z,1.50
2023-04-24T04:01:49.790Z,1.50
2023-04-24T04:04:16.749Z,1.70
2023-04-24T04:06:45.153Z,1.80
2023-04-24T04:09:12.117Z,1.40
2023-04-24T04:11:39.049Z,1.70
2023-04-24T04:14:06.359Z,1.73
2023-04-24T04:16:33.782Z,1.50
2023-04-24T04:19:00.756Z,1.60
2023-04-24T04:21:28.167Z,2.17
2023-04-24T04:23:55.127Z,2.10
2023-04-24T04:26:22.405Z,2.43
2023-04-24T04:28:50.349Z,1.83
2023-04-24T04:31:17.339Z,1.90
2023-04-24T04:33:44.216Z,1.40
2023-04-24T04:36:11.340Z,1.60
2023-04-24T04:38:38.216Z,2.13
2023-04-24T04:41:05.416Z,1.80
2023-04-24T04:43:33.643Z,2.07
2023-04-24T04:46:01.750Z,2.20
2023-04-24T04:48:29.666Z,1.60
2023-04-24T04:50:56.477Z,2.10
2023-04-24T04:53:23.192Z,2.10
2023-04-24T04:55:50.167Z,2.03
2023-04-24T04:58:16.975Z,1.67
2023-04-24T05:00:43.829Z,1.90
2023-04-24T05:03:20.852Z,2.93
2023-04-24T05:05:48.738Z,2.17
2023-04-24T05:10:45.303Z,2.00
2023-04-24T05:13:14.090Z,1.70
2023-04-24T05:15:41.088Z,1.37
2023-04-24T05:18:08.063Z,1.50
2023-04-24T05:20:34.803Z,1.93
2023-04-24T05:23:01.634Z,1.70
2023-04-24T05:25:28.627Z,1.80
2023-04-24T05:27:55.618Z,1.90
2023-04-24T05:30:22.445Z,1.90
2023-04-24T05:32:49.226Z,2.03
2023-04-24T05:35:16.057Z,1.83
2023-04-24T05:37:42.879Z,1.67
2023-04-24T05:40:10.390Z,1.77
2023-04-24T05:42:37.346Z,1.50
2023-04-24T05:45:04.783Z,1.50
2023-04-24T05:47:35.056Z,1.60
2023-04-24T05:50:01.860Z,1.30
2023-04-24T05:52:28.726Z,1.80
2023-04-24T05:54:55.733Z,1.50
2023-04-24T05:57:22.578Z,2.07
2023-04-24T05:59:49.659Z,2.00
2023-04-24T06:02:16.858Z,1.90
2023-04-24T06:04:44.797Z,1.53
2023-04-24T06:07:14.862Z,2.00
2023-04-24T06:09:41.969Z,1.93
2023-04-24T06:12:12.110Z,1.73
2023-04-24T06:14:38.836Z,1.50
2023-04-24T06:17:06.028Z,1.80
2023-04-24T06:19:32.889Z,1.60
2023-04-24T06:21:59.695Z,3.67
2023-04-24T06:24:29.929Z,2.20
2023-04-24T06:26:58.358Z,1.67
2023-04-24T06:29:25.215Z,1.50
2023-04-24T06:31:52.074Z,1.80
2023-04-24T06:34:19.080Z,1.47
2023-04-24T06:36:46.074Z,1.50
2023-04-24T06:39:13.361Z,1.87
2023-04-24T06:41:41.000Z,1.50
2023-04-24T06:44:08.120Z,2.10
2023-04-24T06:46:35.375Z,1.63
2023-04-24T06:49:02.477Z,1.67
2023-04-24T06:51:29.809Z,1.90
2023-04-24T06:53:59.572Z,1.63
2023-04-24T06:56:27.265Z,1.77
2023-04-24T06:58:54.531Z,1.80
2023-04-24T07:01:21.377Z,1.80
2023-04-24T07:03:48.372Z,1.87
2023-04-24T07:06:17.542Z,1.50
2023-04-24T07:08:44.754Z,1.70
2023-04-24T07:11:11.683Z,1.60
2023-04-24T07:13:42.911Z,1.50
2023-04-24T07:16:10.848Z,1.80
2023-04-24T07:18:38.452Z,1.60
2023-04-24T07:21:05.559Z,1.53
2023-04-24T07:23:32.433Z,2.00
2023-04-24T07:25:59.326Z,1.60
2023-04-24T07:28:26.782Z,1.73
2023-04-24T07:30:55.174Z,2.27
2023-04-24T07:33:22.283Z,1.80
2023-04-24T07:35:49.646Z,1.50
2023-04-24T07:38:16.607Z,1.50
2023-04-24T07:40:44.051Z,1.70
2023-04-24T07:43:10.973Z,1.60
2023-04-24T07:45:38.666Z,1.50
2023-04-24T07:48:06.362Z,1.80
2023-04-24T07:50:33.560Z,2.10
2023-04-24T07:53:00.389Z,1.70
2023-04-24T07:55:28.367Z,1.70
2023-04-24T07:57:55.375Z,1.63
2023-04-24T08:00:22.491Z,1.80
2023-04-24T08:02:49.441Z,1.90
2023-04-24T08:05:16.741Z,2.10
2023-04-24T08:07:43.780Z,1.70
2023-04-24T08:10:14.390Z,2.03
2023-04-24T08:12:41.399Z,1.90
2023-04-24T08:15:08.954Z,1.80
2023-04-24T08:17:36.695Z,1.60
2023-04-24T08:20:06.338Z,2.10
2023-04-24T08:22:33.270Z,1.60
2023-04-24T08:25:01.193Z,1.90
2023-04-24T08:27:28.761Z,1.50
2023-04-24T08:29:56.201Z,1.80
2023-04-24T08:32:22.977Z,1.70
2023-04-24T08:34:50.043Z,1.80
2023-04-24T08:37:16.956Z,1.80
2023-04-24T08:39:44.337Z,1.80
2023-04-24T08:42:14.036Z,1.60
2023-04-24T08:44:41.051Z,1.50
2023-04-24T08:47:09.053Z,1.60
2023-04-24T08:49:38.170Z,1.50
2023-04-24T08:52:08.034Z,1.60
2023-04-24T08:54:37.697Z,1.70
2023-04-24T08:57:05.007Z,1.50
2023-04-24T08:59:32.864Z,1.40
2023-04-24T09:02:00.284Z,2.07
2023-04-24T09:04:28.892Z,1.90
2023-04-24T09:06:58.996Z,1.73
2023-04-24T09:09:26.922Z,1.83
2023-04-24T09:11:56.650Z,1.67
2023-04-24T09:14:24.851Z,1.60
2023-04-24T09:16:52.191Z,1.50
2023-04-24T09:19:19.304Z,1.70
2023-04-24T09:21:49.752Z,1.60
2023-04-24T09:24:19.381Z,1.33
2023-04-24T09:26:46.590Z,1.63
2023-04-24T09:29:18.003Z,1.60
2023-04-24T09:31:46.860Z,1.90
2023-04-24T09:34:14.478Z,1.40
2023-04-24T09:36:43.659Z,1.40
2023-04-24T09:39:13.290Z,1.53
2023-04-24T09:41:51.406Z,1.70
2023-04-24T09:44:28.436Z,1.50
2023-04-24T09:46:57.757Z,1.43
2023-04-24T09:49:26.962Z,1.60
2023-04-24T09:52:07.817Z,1.30
2023-04-24T09:54:34.829Z,1.80
2023-04-24T09:57:01.661Z,1.80
2023-04-24T09:59:28.959Z,1.47
2023-04-24T10:01:56.257Z,1.20
2023-04-24T10:04:25.525Z,1.57
2023-04-24T10:06:54.023Z,1.70
2023-04-24T10:09:26.287Z,1.47
2023-04-24T10:11:55.206Z,1.60
2023-04-24T10:14:25.446Z,1.60
2023-04-24T10:16:55.914Z,1.50
2023-04-24T10:19:26.530Z,1.60
2023-04-24T10:21:55.591Z,1.80
2023-04-24T10:24:22.784Z,1.50
2023-04-24T10:26:49.769Z,1.70
2023-04-24T10:29:19.403Z,1.90
2023-04-24T10:31:46.966Z,1.70
2023-04-24T10:34:15.585Z,1.97
2023-04-24T10:36:53.958Z,1.60
2023-04-24T10:39:27.659Z,1.50
2023-04-24T10:41:57.576Z,1.50
2023-04-24T10:44:24.671Z,1.40
2023-04-24T10:46:55.667Z,1.60
2023-04-24T10:49:33.088Z,1.40
2023-04-24T10:52:06.635Z,1.60
2023-04-24T10:54:45.254Z,1.50
2023-04-24T10:57:21.680Z,1.33
2023-04-24T10:59:51.767Z,1.63
2023-04-24T11:02:19.940Z,1.40
2023-04-24T11:04:47.398Z,1.30
2023-04-24T11:07:14.534Z,1.87
2023-04-24T11:09:44.379Z,1.30
2023-04-24T11:12:13.873Z,1.63
2023-04-24T11:14:59.686Z,1.60
2023-04-24T11:17:35.281Z,1.33
2023-04-24T11:20:25.066Z,1.70
2023-04-24T11:22:55.857Z,1.57
2023-04-24T11:25:26.884Z,1.47
2023-04-24T11:28:05.084Z,1.80
2023-04-24T11:30:32.785Z,1.20
2023-04-24T11:33:04.814Z,1.37
2023-04-24T11:35:38.475Z,1.27
2023-04-24T11:40:37.950Z,2.00
2023-04-24T11:43:07.777Z,1.60
2023-04-24T11:45:34.961Z,1.93
2023-04-24T11:48:03.794Z,1.80
2023-04-24T11:50:30.753Z,1.60
2023-04-24T11:52:57.766Z,1.67
2023-04-24T11:55:28.831Z,1.50
2023-04-24T11:57:58.254Z,1.57
2023-04-24T12:00:27.893Z,1.57
2023-04-24T12:03:07.478Z,1.30
2023-04-24T12:05:35.899Z,1.40
2023-04-24T12:08:03.237Z,1.30
2023-04-24T12:10:31.667Z,1.10
2023-04-24T12:12:59.666Z,1.20
2023-04-24T12:15:27.237Z,1.40
2023-04-24T12:17:55.690Z,1.50
2023-04-24T12:20:32.027Z,1.30
2023-04-24T12:23:00.358Z,1.47
2023-04-24T12:25:32.185Z,1.50
2023-04-24T12:28:05.578Z,1.23
2023-04-24T12:30:41.229Z,1.40
2023-04-24T12:33:08.234Z,1.30
2023-04-24T12:35:36.777Z,1.60
2023-04-24T12:38:11.485Z,1.30
2023-04-24T12:40:38.485Z,1.40
2023-04-24T12:43:17.991Z,1.33
2023-04-24T12:45:46.073Z,1.40
2023-04-24T12:48:15.169Z,1.50
2023-04-24T12:50:45.481Z,1.50
2023-04-24T12:53:13.211Z,1.70
2023-04-24T12:55:40.004Z,1.80
2023-04-24T12:58:06.936Z,1.13
2023-04-24T13:00:34.501Z,1.43
2023-04-24T13:03:01.973Z,1.40
2023-04-24T13:05:29.028Z,1.47
2023-04-24T13:07:55.854Z,1.40
2023-04-24T13:10:22.933Z,1.40
2023-04-24T13:12:49.950Z,1.53
2023-04-24T13:15:16.728Z,1.50
2023-04-24T13:17:43.579Z,1.30
2023-04-24T13:20:10.740Z,1.70
2023-04-24T13:22:38.151Z,1.63
2023-04-24T13:25:07.053Z,1.23
2023-04-24T13:27:34.362Z,1.63
2023-04-24T13:30:01.286Z,1.47
2023-04-24T13:32:29.332Z,1.50
2023-04-24T13:34:56.457Z,1.80
2023-04-24T13:37:23.817Z,1.50
2023-04-24T13:39:51.652Z,1.53
2023-04-24T13:42:19.320Z,1.50
2023-04-24T13:44:46.175Z,1.70
2023-04-24T13:47:13.231Z,1.40
2023-04-24T13:49:40.086Z,1.43
2023-04-24T13:52:07.082Z,1.13
2023-04-24T13:54:34.038Z,1.93
2023-04-24T13:57:02.154Z,1.30
2023-04-24T13:59:28.986Z,1.53
2023-04-24T14:01:55.880Z,1.40
2023-04-24T14:04:22.909Z,2.13
2023-04-24T14:06:50.155Z,1.70
2023-04-24T14:09:16.969Z,1.70
2023-04-24T14:11:44.028Z,1.40
2023-04-24T14:14:11.476Z,2.47
2023-04-24T14:16:38.291Z,1.93
2023-04-24T14:19:06.643Z,1.67
2023-04-24T14:21:34.073Z,2.30
2023-04-24T14:24:01.217Z,1.60
2023-04-24T14:26:28.066Z,1.60
2023-04-24T14:29:04.013Z,1.57
2023-04-24T14:31:40.919Z,1.37
2023-04-24T14:34:07.843Z,1.50
2023-04-24T14:36:34.713Z,1.97
2023-04-24T14:39:04.435Z,1.73
2023-04-24T14:41:31.285Z,1.67
2023-04-24T14:43:58.053Z,1.60
2023-04-24T14:46:24.997Z,1.60
2023-04-24T14:48:51.784Z,1.50
2023-04-24T14:51:18.727Z,1.87
2023-04-24T14:53:48.031Z,1.73
2023-04-24T14:56:15.450Z,1.90
2023-04-24T14:58:42.334Z,1.73
2023-04-24T15:01:09.137Z,1.67
2023-04-24T15:03:36.238Z,1.70
2023-04-24T15:06:03.208Z,1.90
2023-04-24T15:08:29.950Z,2.20
2023-04-24T15:10:56.740Z,2.07
2023-04-24T15:13:23.472Z,2.00
2023-04-24T15:15:50.261Z,1.60
2023-04-24T15:18:17.113Z,1.87
2023-04-24T15:20:44.059Z,2.03
2023-04-24T15:23:11.263Z,1.67
2023-04-24T15:25:39.208Z,1.70
2023-04-24T15:28:06.728Z,1.50
2023-04-24T15:30:33.568Z,1.83
2023-04-24T15:33:01.884Z,1.53
2023-04-24T15:35:29.196Z,1.60
2023-04-24T15:37:56.259Z,1.43
2023-04-24T15:40:23.286Z,1.77
2023-04-24T15:42:50.050Z,1.60
2023-04-24T15:45:16.980Z,1.50
2023-04-24T15:47:47.641Z,1.70
2023-04-24T15:50:16.893Z,1.70
2023-04-24T15:52:44.431Z,1.50
2023-04-24T15:55:11.409Z,1.67
2023-04-24T15:57:38.296Z,1.40
2023-04-24T16:00:10.701Z,1.63
2023-04-24T16:02:40.349Z,1.23
2023-04-24T16:05:07.831Z,2.00
2023-04-24T16:07:35.787Z,1.60
2023-04-24T16:10:02.853Z,1.40
2023-04-24T16:12:30.167Z,1.90
2023-04-24T16:14:56.925Z,1.73
2023-04-24T16:17:24.066Z,1.83
2023-04-24T16:19:50.825Z,1.67
2023-04-24T16:22:17.994Z,2.43
2023-04-24T16:24:47.123Z,1.70
2023-04-24T16:27:15.017Z,2.07
2023-04-24T16:29:41.940Z,2.30
2023-04-24T16:32:10.632Z,1.93
2023-04-24T16:34:37.589Z,2.87
2023-04-24T16:37:05.463Z,3.33
2023-04-24T16:39:32.433Z,2.50
2023-04-24T16:42:00.355Z,1.93
2023-04-24T16:44:28.137Z,1.90
2023-04-24T16:46:55.029Z,1.70
2023-04-24T16:49:23.712Z,1.77
2023-04-24T16:51:50.947Z,1.70
2023-04-24T16:54:17.766Z,2.10
2023-04-24T16:56:44.497Z,1.70
2023-04-24T16:59:11.359Z,1.73
2023-04-24T17:01:38.416Z,1.70
2023-04-24T17:04:05.466Z,1.67
2023-04-24T17:06:32.395Z,1.53
2023-04-24T17:09:00.477Z,1.80
2023-04-24T17:11:29.870Z,1.50
2023-04-24T17:13:59.891Z,1.50
2023-04-24T17:16:27.068Z,1.60
2023-04-24T17:18:54.317Z,1.50
2023-04-24T17:21:21.265Z,1.53
2023-04-24T17:23:47.997Z,1.50
2023-04-24T17:26:14.740Z,1.60
2023-04-24T17:28:41.806Z,1.50
2023-04-24T17:31:08.513Z,1.70
2023-04-24T17:33:35.304Z,1.93
2023-04-24T17:36:02.129Z,1.20
2023-04-24T17:38:29.747Z,1.27
2023-04-24T17:40:56.918Z,1.53
2023-04-24T17:43:24.280Z,1.53
2023-04-24T17:45:53.253Z,1.50
2023-04-24T17:48:20.200Z,1.40
2023-04-24T17:50:46.930Z,1.40
2023-04-24T17:53:13.795Z,1.60
2023-04-24T17:55:43.601Z,1.73
2023-04-24T17:58:10.717Z,1.93
2023-04-24T18:00:37.878Z,1.50
2023-04-24T18:03:05.850Z,2.00
2023-04-24T18:05:38.145Z,1.97
2023-04-24T18:08:05.637Z,2.20
2023-04-24T18:10:33.700Z,2.00
2023-04-24T18:13:01.568Z,1.63
2023-04-24T18:15:29.664Z,1.60
2023-04-24T18:17:56.567Z,1.43
2023-04-24T18:20:23.409Z,1.77
2023-04-24T18:22:50.218Z,2.07
2023-04-24T18:25:17.799Z,2.53
2023-04-24T18:27:44.591Z,2.50
2023-04-24T18:30:14.488Z,2.87
2023-04-24T18:32:42.210Z,2.47
2023-04-24T18:35:09.960Z,2.40
2023-04-24T18:37:36.710Z,2.50
2023-04-24T18:40:03.759Z,2.50
2023-04-24T18:42:30.711Z,2.40
2023-04-24T18:45:01.850Z,1.97
2023-04-24T18:47:29.120Z,2.27
2023-04-24T18:49:56.081Z,2.00
2023-04-24T18:52:24.286Z,2.10
2023-04-24T18:54:51.563Z,2.53
2023-04-24T18:57:18.454Z,1.87
2023-04-24T18:59:45.317Z,2.13
2023-04-24T19:02:12.250Z,2.67
2023-04-24T19:04:39.689Z,3.40
2023-04-24T19:07:07.201Z,3.27
2023-04-24T19:09:34.196Z,3.00
2023-04-24T19:12:01.915Z,2.80
2023-04-24T19:14:28.989Z,3.30
2023-04-24T19:16:55.834Z,3.10
2023-04-24T19:19:23.830Z,3.57
2023-04-24T19:21:50.710Z,3.90
2023-04-24T19:24:19.228Z,3.03
2023-04-24T19:26:46.304Z,3.27
2023-04-24T19:29:13.195Z,3.43
2023-04-24T19:31:40.161Z,3.37
2023-04-24T19:34:07.030Z,8.30
2023-04-24T19:36:34.655Z,5.90
2023-04-24T19:39:01.730Z,7.37
2023-04-24T19:41:28.550Z,12.07
2023-04-24T19:43:55.596Z,4.73
2023-04-24T19:46:22.736Z,3.37
2023-04-24T19:48:49.888Z,3.10
2023-04-24T19:51:16.855Z,2.77
2023-04-24T19:53:43.892Z,3.40
2023-04-24T19:56:10.876Z,3.50
2023-04-24T19:58:37.616Z,3.87
2023-04-24T20:01:06.000Z,3.60
2023-04-24T20:03:34.294Z,3.50
2023-04-24T20:06:01.886Z,3.50
2023-04-24T20:08:28.756Z,3.80
2023-04-24T20:10:57.863Z,3.90
2023-04-24T20:13:28.141Z,4.33
2023-04-24T20:15:55.180Z,5.20
2023-04-24T20:18:23.373Z,5.07
2023-04-24T20:20:54.130Z,4.60
2023-04-24T20:23:20.868Z,3.40
2023-04-24T20:25:47.635Z,4.07
2023-04-24T20:28:14.909Z,3.50
2023-04-24T20:30:41.756Z,3.40
2023-04-24T20:33:08.630Z,4.37
2023-04-24T20:35:35.830Z,4.27
2023-04-24T20:38:03.218Z,5.30
2023-04-24T20:40:31.707Z,4.20
2023-04-24T20:42:58.711Z,4.73
2023-04-24T20:45:25.855Z,4.13
2023-04-24T20:47:52.736Z,3.93
2023-04-24T20:50:20.495Z,3.60
2023-04-24T20:52:47.439Z,3.50
2023-04-24T20:55:15.308Z,3.37
2023-04-24T20:57:42.261Z,3.90
2023-04-24T21:00:11.124Z,3.30
2023-04-24T21:02:38.122Z,3.13
2023-04-24T21:05:05.364Z,3.57
2023-04-24T21:07:35.597Z,4.50
2023-04-24T21:10:02.499Z,3.57
2023-04-24T21:12:29.221Z,3.20
2023-04-24T21:14:56.066Z,2.83
2023-04-24T21:17:22.896Z,3.07
2023-04-24T21:19:49.769Z,3.10
2023-04-24T21:22:16.527Z,2.83
2023-04-24T21:24:43.594Z,2.90
2023-04-24T21:27:10.514Z,2.93
2023-04-24T21:29:37.575Z,2.80
2023-04-24T21:32:04.743Z,2.73
2023-04-24T21:34:31.830Z,2.20
2023-04-24T21:36:58.548Z,2.27
2023-04-24T21:39:25.364Z,2.03
2023-04-24T21:41:52.197Z,2.30
2023-04-24T21:44:19.049Z,2.70
2023-04-24T21:46:46.042Z,2.13
2023-04-24T21:49:12.877Z,1.80
2023-04-24T21:51:39.648Z,2.00
2023-04-24T21:54:06.427Z,2.00
2023-04-24T21:56:33.267Z,2.27
2023-04-24T21:59:00.070Z,2.20
2023-04-24T22:01:27.035Z,1.90
2023-04-24T22:03:54.180Z,2.00
2023-04-24T22:06:21.351Z,2.00
2023-04-24T22:08:48.268Z,1.80
2023-04-24T22:11:25.782Z,2.53
2023-04-24T22:13:54.954Z,2.37
2023-04-24T22:16:24.292Z,1.90
2023-04-24T22:18:53.684Z,2.00
2023-04-24T22:21:21.622Z,2.30
2023-04-24T22:23:48.811Z,2.13
2023-04-24T22:26:15.912Z,2.10
2023-04-24T22:28:42.773Z,2.07
2023-04-24T22:31:09.851Z,2.37
2023-04-24T22:33:36.638Z,2.10
2023-04-24T22:36:03.654Z,2.50
2023-04-24T22:38:30.527Z,2.17
2023-04-24T22:40:57.342Z,1.87
2023-04-24T22:43:24.489Z,2.67
2023-04-24T22:45:51.812Z,2.30
2023-04-24T22:48:18.598Z,2.53
2023-04-24T22:50:45.448Z,2.53
2023-04-24T22:53:12.180Z,2.30
2023-04-24T22:55:39.057Z,2.10
2023-04-24T22:58:06.664Z,2.40
2023-04-24T23:00:33.522Z,2.47
2023-04-24T23:03:00.380Z,2.50
2023-04-24T23:05:28.086Z,2.43
2023-04-24T23:07:55.126Z,2.00
2023-04-24T23:10:21.952Z,2.40
2023-04-24T23:12:49.008Z,1.93
2023-04-24T23:15:16.055Z,2.30
2023-04-24T23:17:43.586Z,2.27
2023-04-24T23:20:14.282Z,2.13
2023-04-24T23:22:41.814Z,2.00
2023-04-24T23:25:09.168Z,2.30
2023-04-24T23:27:35.876Z,2.20
2023-04-24T23:30:03.930Z,2.40
2023-04-24T23:32:31.265Z,2.20
2023-04-24T23:34:58.145Z,2.07
2023-04-24T23:37:25.102Z,2.30
2023-04-24T23:39:51.940Z,2.30
2023-04-24T23:42:18.698Z,2.60
2023-04-24T23:44:45.639Z,2.37
2023-04-24T23:47:12.353Z,2.50
2023-04-24T23:49:39.235Z,2.23
2023-04-24T23:52:06.075Z,2.37
2023-04-24T23:54:32.920Z,2.33
2023-04-24T23:56:59.702Z,2.37
2023-04-24T23:59:26.489Z,2.50
